sensor_id;sensor_type;location;lat;lon;timestamp;temperature;humidity
43143;DHT22;28750;59.842;17.584;2023-08-06T00:01:54;13.20;99.90
43143;DHT22;28750;59.842;17.584;2023-08-06T00:04:21;13.20;99.90
43143;DHT22;28750;59.842;17.584;2023-08-06T00:06:48;13.20;99.90
43143;DHT22;28750;59.842;17.584;2023-08-06T00:09:15;13.20;99.90
43143;DHT22;28750;59.842;17.584;2023-08-06T00:11:42;13.20;99.90
43143;DHT22;28750;59.842;17.584;2023-08-06T00:14:12;13.20;99.90
43143;DHT22;28750;59.842;17.584;2023-08-06T00:16:43;13.10;99.90
43143;DHT22;28750;59.842;17.584;2023-08-06T00:19:11;13.20;99.90
43143;DHT22;28750;59.842;17.584;2023-08-06T00:21:38;13.20;99.90
43143;DHT22;28750;59.842;17.584;2023-08-06T00:24:05;13.10;99.90
43143;DHT22;28750;59.842;17.584;2023-08-06T00:26:32;13.10;99.90
43143;DHT22;28750;59.842;17.584;2023-08-06T00:28:59;13.00;99.90
43143;DHT22;28750;59.842;17.584;2023-08-06T00:31:27;13.10;99.90
43143;DHT22;28750;59.842;17.584;2023-08-06T00:33:54;13.10;99.90
43143;DHT22;28750;59.842;17.584;2023-08-06T00:36:21;13.00;99.90
43143;DHT22;28750;59.842;17.584;2023-08-06T00:38:48;13.10;99.90
43143;DHT22;28750;59.842;17.584;2023-08-06T00:41:15;13.20;99.90
43143;DHT22;28750;59.842;17.584;2023-08-06T00:43:42;13.10;99.90
43143;DHT22;28750;59.842;17.584;2023-08-06T00:46:10;13.10;99.90
43143;DHT22;28750;59.842;17.584;2023-08-06T00:48:37;13.10;99.90
43143;DHT22;28750;59.842;17.584;2023-08-06T00:51:04;13.10;99.90
43143;DHT22;28750;59.842;17.584;2023-08-06T00:53:32;13.10;99.90
43143;DHT22;28750;59.842;17.584;2023-08-06T00:55:59;13.10;99.90
43143;DHT22;28750;59.842;17.584;2023-08-06T00:58:27;13.10;99.90
43143;DHT22;28750;59.842;17.584;2023-08-06T01:00:54;13.10;99.90
43143;DHT22;28750;59.842;17.584;2023-08-06T01:03:21;13.10;99.90
43143;DHT22;28750;59.842;17.584;2023-08-06T01:05:49;13.10;99.90
43143;DHT22;28750;59.842;17.584;2023-08-06T01:14:06;12.90;99.90
43143;DHT22;28750;59.842;17.584;2023-08-06T01:16:34;12.90;99.90
43143;DHT22;28750;59.842;17.584;2023-08-06T01:19:02;13.00;99.90
43143;DHT22;28750;59.842;17.584;2023-08-06T01:21:29;13.10;99.90
43143;DHT22;28750;59.842;17.584;2023-08-06T01:23:56;13.00;99.90
43143;DHT22;28750;59.842;17.584;2023-08-06T01:26:42;12.90;99.90
43143;DHT22;28750;59.842;17.584;2023-08-06T01:29:24;12.80;99.90
43143;DHT22;28750;59.842;17.584;2023-08-06T01:31:53;12.60;99.90
43143;DHT22;28750;59.842;17.584;2023-08-06T01:34:23;12.50;99.90
43143;DHT22;28750;59.842;17.584;2023-08-06T01:36:51;12.30;99.90
43143;DHT22;28750;59.842;17.584;2023-08-06T01:39:19;12.30;99.90
43143;DHT22;28750;59.842;17.584;2023-08-06T01:41:47;12.40;99.90
43143;DHT22;28750;59.842;17.584;2023-08-06T01:44:15;12.40;99.90
43143;DHT22;28750;59.842;17.584;2023-08-06T01:46:43;12.40;99.90
43143;DHT22;28750;59.842;17.584;2023-08-06T01:49:10;12.50;99.90
43143;DHT22;28750;59.842;17.584;2023-08-06T01:51:37;12.50;99.90
43143;DHT22;28750;59.842;17.584;2023-08-06T01:54:04;12.50;99.90
43143;DHT22;28750;59.842;17.584;2023-08-06T01:56:31;12.60;99.90
43143;DHT22;28750;59.842;17.584;2023-08-06T01:58:58;12.60;99.90
43143;DHT22;28750;59.842;17.584;2023-08-06T02:01:26;12.80;99.90
43143;DHT22;28750;59.842;17.584;2023-08-06T02:03:53;12.70;99.90
43143;DHT22;28750;59.842;17.584;2023-08-06T02:06:20;12.70;99.90
43143;DHT22;28750;59.842;17.584;2023-08-06T02:08:47;12.70;99.90
43143;DHT22;28750;59.842;17.584;2023-08-06T02:11:14;12.50;99.90
43143;DHT22;28750;59.842;17.584;2023-08-06T02:13:42;12.60;99.90
43143;DHT22;28750;59.842;17.584;2023-08-06T02:16:09;12.70;99.90
43143;DHT22;28750;59.842;17.584;2023-08-06T02:18:36;12.70;99.90
43143;DHT22;28750;59.842;17.584;2023-08-06T02:21:03;12.70;99.90
43143;DHT22;28750;59.842;17.584;2023-08-06T02:23:30;12.50;99.90
43143;DHT22;28750;59.842;17.584;2023-08-06T02:26:04;12.30;99.90
43143;DHT22;28750;59.842;17.584;2023-08-06T02:28:32;12.10;99.90
43143;DHT22;28750;59.842;17.584;2023-08-06T02:30:59;12.10;99.90
43143;DHT22;28750;59.842;17.584;2023-08-06T02:33:26;12.10;99.90
43143;DHT22;28750;59.842;17.584;2023-08-06T02:36:03;12.30;99.90
43143;DHT22;28750;59.842;17.584;2023-08-06T02:38:31;12.30;99.90
43143;DHT22;28750;59.842;17.584;2023-08-06T02:40:59;12.20;99.90
43143;DHT22;28750;59.842;17.584;2023-08-06T02:43:28;12.10;99.90
43143;DHT22;28750;59.842;17.584;2023-08-06T02:45:59;12.00;99.90
43143;DHT22;28750;59.842;17.584;2023-08-06T02:48:27;12.00;99.90
43143;DHT22;28750;59.842;17.584;2023-08-06T02:50:57;12.00;99.90
43143;DHT22;28750;59.842;17.584;2023-08-06T02:53:25;12.00;99.90
43143;DHT22;28750;59.842;17.584;2023-08-06T02:55:52;12.00;99.90
43143;DHT22;28750;59.842;17.584;2023-08-06T02:58:20;12.10;99.90
43143;DHT22;28750;59.842;17.584;2023-08-06T03:01:05;12.10;99.90
43143;DHT22;28750;59.842;17.584;2023-08-06T03:03:33;12.10;99.90
43143;DHT22;28750;59.842;17.584;2023-08-06T03:06:00;12.20;99.90
43143;DHT22;28750;59.842;17.584;2023-08-06T03:08:28;12.20;99.90
43143;DHT22;28750;59.842;17.584;2023-08-06T03:10:55;12.20;99.90
43143;DHT22;28750;59.842;17.584;2023-08-06T03:13:22;12.20;99.90
43143;DHT22;28750;59.842;17.584;2023-08-06T03:15:57;12.30;99.90
43143;DHT22;28750;59.842;17.584;2023-08-06T03:18:25;12.40;99.90
43143;DHT22;28750;59.842;17.584;2023-08-06T03:20:53;12.30;99.90
43143;DHT22;28750;59.842;17.584;2023-08-06T03:23:20;12.30;99.90
43143;DHT22;28750;59.842;17.584;2023-08-06T03:25:47;12.20;99.90
43143;DHT22;28750;59.842;17.584;2023-08-06T03:28:14;12.10;99.90
43143;DHT22;28750;59.842;17.584;2023-08-06T03:30:42;12.00;99.90
43143;DHT22;28750;59.842;17.584;2023-08-06T03:33:09;12.10;99.90
43143;DHT22;28750;59.842;17.584;2023-08-06T03:35:36;12.20;99.90
43143;DHT22;28750;59.842;17.584;2023-08-06T03:38:03;12.20;99.90
43143;DHT22;28750;59.842;17.584;2023-08-06T03:40:30;12.20;99.90
43143;DHT22;28750;59.842;17.584;2023-08-06T03:42:57;12.10;99.90
43143;DHT22;28750;59.842;17.584;2023-08-06T03:45:25;12.00;99.90
43143;DHT22;28750;59.842;17.584;2023-08-06T03:47:52;12.10;99.90
43143;DHT22;28750;59.842;17.584;2023-08-06T03:50:19;12.20;99.90
43143;DHT22;28750;59.842;17.584;2023-08-06T03:52:46;12.40;99.90
43143;DHT22;28750;59.842;17.584;2023-08-06T03:55:13;12.40;99.90
43143;DHT22;28750;59.842;17.584;2023-08-06T03:57:40;12.50;99.90
43143;DHT22;28750;59.842;17.584;2023-08-06T04:00:08;12.50;99.90
43143;DHT22;28750;59.842;17.584;2023-08-06T04:02:35;12.60;99.90
43143;DHT22;28750;59.842;17.584;2023-08-06T04:05:02;12.60;99.90
43143;DHT22;28750;59.842;17.584;2023-08-06T04:07:29;12.50;99.90
43143;DHT22;28750;59.842;17.584;2023-08-06T04:10:02;12.60;99.90
43143;DHT22;28750;59.842;17.584;2023-08-06T04:12:30;12.80;99.90
43143;DHT22;28750;59.842;17.584;2023-08-06T04:14:59;13.00;99.90
43143;DHT22;28750;59.842;17.584;2023-08-06T04:17:26;13.20;99.90
43143;DHT22;28750;59.842;17.584;2023-08-06T04:19:54;13.30;99.90
43143;DHT22;28750;59.842;17.584;2023-08-06T04:22:24;13.50;99.90
43143;DHT22;28750;59.842;17.584;2023-08-06T04:24:51;13.60;99.90
43143;DHT22;28750;59.842;17.584;2023-08-06T04:27:19;13.60;99.90
43143;DHT22;28750;59.842;17.584;2023-08-06T04:29:47;13.60;99.90
43143;DHT22;28750;59.842;17.584;2023-08-06T04:32:14;13.80;99.90
43143;DHT22;28750;59.842;17.584;2023-08-06T04:34:41;13.90;99.90
43143;DHT22;28750;59.842;17.584;2023-08-06T04:37:08;14.10;99.90
43143;DHT22;28750;59.842;17.584;2023-08-06T04:39:36;14.00;99.90
43143;DHT22;28750;59.842;17.584;2023-08-06T04:42:03;14.10;99.90
43143;DHT22;28750;59.842;17.584;2023-08-06T04:44:30;14.20;99.90
43143;DHT22;28750;59.842;17.584;2023-08-06T04:46:57;14.20;99.90
43143;DHT22;28750;59.842;17.584;2023-08-06T04:49:25;14.30;99.90
43143;DHT22;28750;59.842;17.584;2023-08-06T04:51:52;14.30;99.90
43143;DHT22;28750;59.842;17.584;2023-08-06T04:54:19;14.20;99.90
43143;DHT22;28750;59.842;17.584;2023-08-06T04:56:46;14.20;99.90
43143;DHT22;28750;59.842;17.584;2023-08-06T04:59:14;14.30;99.90
43143;DHT22;28750;59.842;17.584;2023-08-06T05:01:41;14.40;99.90
43143;DHT22;28750;59.842;17.584;2023-08-06T05:04:08;14.40;99.90
43143;DHT22;28750;59.842;17.584;2023-08-06T05:06:35;14.40;99.90
43143;DHT22;28750;59.842;17.584;2023-08-06T05:09:04;14.50;99.90
43143;DHT22;28750;59.842;17.584;2023-08-06T05:11:31;14.50;99.90
43143;DHT22;28750;59.842;17.584;2023-08-06T05:13:59;14.60;99.90
43143;DHT22;28750;59.842;17.584;2023-08-06T05:16:26;14.70;99.90
43143;DHT22;28750;59.842;17.584;2023-08-06T05:18:53;14.80;99.90
43143;DHT22;28750;59.842;17.584;2023-08-06T05:21:20;14.80;99.90
43143;DHT22;28750;59.842;17.584;2023-08-06T05:23:47;15.00;99.90
43143;DHT22;28750;59.842;17.584;2023-08-06T05:26:14;15.10;99.90
43143;DHT22;28750;59.842;17.584;2023-08-06T05:28:44;15.20;99.90
43143;DHT22;28750;59.842;17.584;2023-08-06T05:31:11;15.30;99.90
43143;DHT22;28750;59.842;17.584;2023-08-06T05:33:39;15.30;99.90
43143;DHT22;28750;59.842;17.584;2023-08-06T05:36:06;15.50;99.90
43143;DHT22;28750;59.842;17.584;2023-08-06T05:38:33;15.60;99.90
43143;DHT22;28750;59.842;17.584;2023-08-06T05:41:00;15.70;99.90
43143;DHT22;28750;59.842;17.584;2023-08-06T05:43:27;15.80;99.90
43143;DHT22;28750;59.842;17.584;2023-08-06T05:45:56;15.90;99.90
43143;DHT22;28750;59.842;17.584;2023-08-06T05:48:23;16.00;99.90
43143;DHT22;28750;59.842;17.584;2023-08-06T05:50:51;16.00;99.90
43143;DHT22;28750;59.842;17.584;2023-08-06T05:53:19;16.20;99.90
43143;DHT22;28750;59.842;17.584;2023-08-06T05:55:46;16.20;99.90
43143;DHT22;28750;59.842;17.584;2023-08-06T05:58:16;16.20;99.90
43143;DHT22;28750;59.842;17.584;2023-08-06T06:00:45;16.40;99.90
43143;DHT22;28750;59.842;17.584;2023-08-06T06:03:12;16.60;99.90
43143;DHT22;28750;59.842;17.584;2023-08-06T06:05:39;16.50;99.90
43143;DHT22;28750;59.842;17.584;2023-08-06T06:08:06;16.40;99.90
43143;DHT22;28750;59.842;17.584;2023-08-06T06:10:35;16.50;99.90
43143;DHT22;28750;59.842;17.584;2023-08-06T06:13:02;16.60;99.90
43143;DHT22;28750;59.842;17.584;2023-08-06T06:15:29;16.60;99.90
43143;DHT22;28750;59.842;17.584;2023-08-06T06:17:56;16.60;99.90
43143;DHT22;28750;59.842;17.584;2023-08-06T06:20:23;16.70;99.90
43143;DHT22;28750;59.842;17.584;2023-08-06T06:22:50;16.80;99.90
43143;DHT22;28750;59.842;17.584;2023-08-06T06:25:18;16.80;99.90
43143;DHT22;28750;59.842;17.584;2023-08-06T06:27:45;16.80;99.90
43143;DHT22;28750;59.842;17.584;2023-08-06T06:30:12;16.80;99.90
43143;DHT22;28750;59.842;17.584;2023-08-06T06:32:39;16.80;99.90
43143;DHT22;28750;59.842;17.584;2023-08-06T06:35:08;16.70;99.90
43143;DHT22;28750;59.842;17.584;2023-08-06T06:37:35;16.90;99.90
43143;DHT22;28750;59.842;17.584;2023-08-06T06:40:02;17.00;99.90
43143;DHT22;28750;59.842;17.584;2023-08-06T06:42:30;17.00;99.90
43143;DHT22;28750;59.842;17.584;2023-08-06T06:44:57;17.00;99.90
43143;DHT22;28750;59.842;17.584;2023-08-06T06:47:25;17.10;99.90
43143;DHT22;28750;59.842;17.584;2023-08-06T06:49:52;17.10;99.90
43143;DHT22;28750;59.842;17.584;2023-08-06T06:52:19;17.20;99.90
43143;DHT22;28750;59.842;17.584;2023-08-06T06:54:47;17.20;99.90
43143;DHT22;28750;59.842;17.584;2023-08-06T06:57:14;17.20;99.90
43143;DHT22;28750;59.842;17.584;2023-08-06T06:59:41;17.20;99.90
43143;DHT22;28750;59.842;17.584;2023-08-06T07:02:08;17.30;99.90
43143;DHT22;28750;59.842;17.584;2023-08-06T07:04:35;17.40;99.90
43143;DHT22;28750;59.842;17.584;2023-08-06T07:07:03;17.40;99.90
43143;DHT22;28750;59.842;17.584;2023-08-06T07:09:30;17.30;1.00
43143;DHT22;28750;59.842;17.584;2023-08-06T07:11:57;17.30;99.90
43143;DHT22;28750;59.842;17.584;2023-08-06T07:14:25;17.20;99.90
43143;DHT22;28750;59.842;17.584;2023-08-06T07:16:53;17.40;1.00
43143;DHT22;28750;59.842;17.584;2023-08-06T07:19:20;17.30;1.00
43143;DHT22;28750;59.842;17.584;2023-08-06T07:21:47;17.40;91.10
43143;DHT22;28750;59.842;17.584;2023-08-06T07:24:14;17.60;25.80
43143;DHT22;28750;59.842;17.584;2023-08-06T07:26:41;17.80;99.90
43143;DHT22;28750;59.842;17.584;2023-08-06T07:29:08;17.60;1.00
43143;DHT22;28750;59.842;17.584;2023-08-06T07:31:35;17.50;99.90
43143;DHT22;28750;59.842;17.584;2023-08-06T07:34:02;17.50;99.90
43143;DHT22;28750;59.842;17.584;2023-08-06T07:36:30;17.50;99.90
43143;DHT22;28750;59.842;17.584;2023-08-06T07:38:57;17.60;99.90
43143;DHT22;28750;59.842;17.584;2023-08-06T07:41:24;17.70;99.90
43143;DHT22;28750;59.842;17.584;2023-08-06T07:43:52;17.60;99.90
43143;DHT22;28750;59.842;17.584;2023-08-06T07:46:19;17.70;99.90
43143;DHT22;28750;59.842;17.584;2023-08-06T07:48:46;17.90;99.90
43143;DHT22;28750;59.842;17.584;2023-08-06T07:51:13;18.00;1.00
43143;DHT22;28750;59.842;17.584;2023-08-06T07:53:40;18.00;1.00
43143;DHT22;28750;59.842;17.584;2023-08-06T07:56:07;17.90;99.90
43143;DHT22;28750;59.842;17.584;2023-08-06T07:58:35;18.10;99.90
43143;DHT22;28750;59.842;17.584;2023-08-06T08:01:02;18.30;91.10
43143;DHT22;28750;59.842;17.584;2023-08-06T08:03:29;18.40;99.90
43143;DHT22;28750;59.842;17.584;2023-08-06T08:05:56;18.50;99.90
43143;DHT22;28750;59.842;17.584;2023-08-06T08:08:24;18.50;99.90
43143;DHT22;28750;59.842;17.584;2023-08-06T08:10:52;18.50;99.90
43143;DHT22;28750;59.842;17.584;2023-08-06T08:13:20;18.40;7.20
43143;DHT22;28750;59.842;17.584;2023-08-06T08:15:47;18.50;1.00
43143;DHT22;28750;59.842;17.584;2023-08-06T08:18:14;18.60;53.20
43143;DHT22;28750;59.842;17.584;2023-08-06T08:20:42;18.70;4.20
43143;DHT22;28750;59.842;17.584;2023-08-06T08:23:09;18.80;1.00
43143;DHT22;28750;59.842;17.584;2023-08-06T08:25:36;18.80;99.90
43143;DHT22;28750;59.842;17.584;2023-08-06T08:28:03;18.60;14.20
43143;DHT22;28750;59.842;17.584;2023-08-06T08:30:31;18.70;99.90
43143;DHT22;28750;59.842;17.584;2023-08-06T08:32:58;18.70;1.00
43143;DHT22;28750;59.842;17.584;2023-08-06T08:35:25;18.70;1.00
43143;DHT22;28750;59.842;17.584;2023-08-06T08:37:52;18.80;99.90
43143;DHT22;28750;59.842;17.584;2023-08-06T08:40:22;18.90;99.90
43143;DHT22;28750;59.842;17.584;2023-08-06T08:42:50;18.90;98.90
43143;DHT22;28750;59.842;17.584;2023-08-06T08:45:20;18.80;99.90
43143;DHT22;28750;59.842;17.584;2023-08-06T08:47:49;18.90;50.50
43143;DHT22;28750;59.842;17.584;2023-08-06T08:50:17;18.80;1.00
43143;DHT22;28750;59.842;17.584;2023-08-06T08:52:45;19.00;20.10
43143;DHT22;28750;59.842;17.584;2023-08-06T08:55:15;19.00;99.90
43143;DHT22;28750;59.842;17.584;2023-08-06T08:57:42;18.90;99.90
43143;DHT22;28750;59.842;17.584;2023-08-06T09:00:10;19.10;93.40
43143;DHT22;28750;59.842;17.584;2023-08-06T09:02:38;19.20;61.60
43143;DHT22;28750;59.842;17.584;2023-08-06T09:05:07;19.00;99.90
43143;DHT22;28750;59.842;17.584;2023-08-06T09:07:46;19.00;99.90
43143;DHT22;28750;59.842;17.584;2023-08-06T09:10:16;19.20;1.00
43143;DHT22;28750;59.842;17.584;2023-08-06T09:12:44;19.10;99.90
43143;DHT22;28750;59.842;17.584;2023-08-06T09:15:11;19.20;1.00
43143;DHT22;28750;59.842;17.584;2023-08-06T09:17:39;19.10;99.90
43143;DHT22;28750;59.842;17.584;2023-08-06T09:20:13;19.30;99.90
43143;DHT22;28750;59.842;17.584;2023-08-06T09:22:40;19.40;99.90
43143;DHT22;28750;59.842;17.584;2023-08-06T09:25:08;19.40;46.40
43143;DHT22;28750;59.842;17.584;2023-08-06T09:27:39;19.40;99.90
43143;DHT22;28750;59.842;17.584;2023-08-06T09:30:07;19.10;1.00
43143;DHT22;28750;59.842;17.584;2023-08-06T09:32:54;19.30;99.70
43143;DHT22;28750;59.842;17.584;2023-08-06T09:35:22;19.20;1.00
43143;DHT22;28750;59.842;17.584;2023-08-06T09:37:49;19.20;1.00
43143;DHT22;28750;59.842;17.584;2023-08-06T09:40:30;19.30;99.90
43143;DHT22;28750;59.842;17.584;2023-08-06T09:42:58;19.20;23.90
43143;DHT22;28750;59.842;17.584;2023-08-06T09:45:34;19.00;50.50
43143;DHT22;28750;59.842;17.584;2023-08-06T09:48:07;19.00;99.90
43143;DHT22;28750;59.842;17.584;2023-08-06T09:50:36;19.00;1.00
43143;DHT22;28750;59.842;17.584;2023-08-06T09:53:07;19.10;99.90
43143;DHT22;28750;59.842;17.584;2023-08-06T09:55:35;19.00;99.90
43143;DHT22;28750;59.842;17.584;2023-08-06T09:58:02;19.10;99.90
43143;DHT22;28750;59.842;17.584;2023-08-06T10:00:31;19.00;1.00
43143;DHT22;28750;59.842;17.584;2023-08-06T10:03:00;19.20;99.90
43143;DHT22;28750;59.842;17.584;2023-08-06T10:05:28;19.30;99.90
43143;DHT22;28750;59.842;17.584;2023-08-06T10:07:57;19.20;1.00
43143;DHT22;28750;59.842;17.584;2023-08-06T10:10:27;19.00;1.00
43143;DHT22;28750;59.842;17.584;2023-08-06T10:12:57;19.10;16.20
43143;DHT22;28750;59.842;17.584;2023-08-06T10:15:28;19.10;99.90
43143;DHT22;28750;59.842;17.584;2023-08-06T10:17:57;19.20;99.90
43143;DHT22;28750;59.842;17.584;2023-08-06T10:20:25;19.40;1.00
43143;DHT22;28750;59.842;17.584;2023-08-06T10:23:02;19.30;99.90
43143;DHT22;28750;59.842;17.584;2023-08-06T10:25:35;19.10;99.90
43143;DHT22;28750;59.842;17.584;2023-08-06T10:28:12;19.00;99.90
43143;DHT22;28750;59.842;17.584;2023-08-06T10:30:49;19.10;90.10
43143;DHT22;28750;59.842;17.584;2023-08-06T10:33:19;19.00;1.00
43143;DHT22;28750;59.842;17.584;2023-08-06T10:35:49;19.00;99.90
43143;DHT22;28750;59.842;17.584;2023-08-06T10:38:20;19.00;1.00
43143;DHT22;28750;59.842;17.584;2023-08-06T10:43:32;19.00;99.90
43143;DHT22;28750;59.842;17.584;2023-08-06T10:46:08;19.10;99.90
43143;DHT22;28750;59.842;17.584;2023-08-06T10:48:41;19.00;99.90
43143;DHT22;28750;59.842;17.584;2023-08-06T10:51:11;19.10;1.00
43143;DHT22;28750;59.842;17.584;2023-08-06T10:53:44;19.10;4.50
43143;DHT22;28750;59.842;17.584;2023-08-06T10:56:19;19.10;30.40
43143;DHT22;28750;59.842;17.584;2023-08-06T10:58:48;19.20;1.00
43143;DHT22;28750;59.842;17.584;2023-08-06T11:01:16;19.20;1.00
43143;DHT22;28750;59.842;17.584;2023-08-06T11:03:45;19.10;1.00
43143;DHT22;28750;59.842;17.584;2023-08-06T11:06:18;19.10;99.90
43143;DHT22;28750;59.842;17.584;2023-08-06T11:08:53;19.00;99.90
43143;DHT22;28750;59.842;17.584;2023-08-06T11:11:22;19.00;1.00
43143;DHT22;28750;59.842;17.584;2023-08-06T11:13:51;18.90;99.90
43143;DHT22;28750;59.842;17.584;2023-08-06T11:16:20;18.90;1.00
43143;DHT22;28750;59.842;17.584;2023-08-06T11:18:49;19.00;99.90
43143;DHT22;28750;59.842;17.584;2023-08-06T11:21:21;18.90;1.00
43143;DHT22;28750;59.842;17.584;2023-08-06T11:23:51;18.80;1.00
43143;DHT22;28750;59.842;17.584;2023-08-06T11:26:21;18.80;99.90
43143;DHT22;28750;59.842;17.584;2023-08-06T11:28:49;18.70;1.00
43143;DHT22;28750;59.842;17.584;2023-08-06T11:31:23;18.60;99.90
43143;DHT22;28750;59.842;17.584;2023-08-06T11:33:54;18.60;95.80
43143;DHT22;28750;59.842;17.584;2023-08-06T11:36:31;18.50;52.70
43143;DHT22;28750;59.842;17.584;2023-08-06T11:39:02;18.40;1.00
43143;DHT22;28750;59.842;17.584;2023-08-06T11:41:31;18.30;99.90
43143;DHT22;28750;59.842;17.584;2023-08-06T11:43:59;18.20;99.90
43143;DHT22;28750;59.842;17.584;2023-08-06T11:46:26;18.10;1.00
43143;DHT22;28750;59.842;17.584;2023-08-06T11:48:55;18.00;1.00
43143;DHT22;28750;59.842;17.584;2023-08-06T11:51:23;17.90;99.90
43143;DHT22;28750;59.842;17.584;2023-08-06T11:54:00;17.90;99.90
43143;DHT22;28750;59.842;17.584;2023-08-06T11:56:28;17.80;99.90
43143;DHT22;28750;59.842;17.584;2023-08-06T11:58:55;17.70;1.00
43143;DHT22;28750;59.842;17.584;2023-08-06T12:01:22;17.70;1.00
43143;DHT22;28750;59.842;17.584;2023-08-06T12:03:50;17.60;99.90
43143;DHT22;28750;59.842;17.584;2023-08-06T12:06:17;17.60;99.90
43143;DHT22;28750;59.842;17.584;2023-08-06T12:08:44;17.60;99.90
43143;DHT22;28750;59.842;17.584;2023-08-06T12:11:11;17.50;1.00
43143;DHT22;28750;59.842;17.584;2023-08-06T12:13:39;17.40;1.00
43143;DHT22;28750;59.842;17.584;2023-08-06T12:16:08;17.40;99.90
43143;DHT22;28750;59.842;17.584;2023-08-06T12:18:35;17.20;99.90
43143;DHT22;28750;59.842;17.584;2023-08-06T12:21:03;17.10;99.90
43143;DHT22;28750;59.842;17.584;2023-08-06T12:23:30;17.20;99.90
43143;DHT22;28750;59.842;17.584;2023-08-06T12:25:58;17.10;99.90
43143;DHT22;28750;59.842;17.584;2023-08-06T12:28:25;17.20;99.90
43143;DHT22;28750;59.842;17.584;2023-08-06T12:30:53;17.20;1.00
43143;DHT22;28750;59.842;17.584;2023-08-06T12:33:21;17.20;99.90
43143;DHT22;28750;59.842;17.584;2023-08-06T12:35:49;17.20;99.90
43143;DHT22;28750;59.842;17.584;2023-08-06T12:38:19;17.10;99.90
43143;DHT22;28750;59.842;17.584;2023-08-06T12:40:47;17.10;99.90
43143;DHT22;28750;59.842;17.584;2023-08-06T12:43:17;17.10;99.90
43143;DHT22;28750;59.842;17.584;2023-08-06T12:45:46;17.10;99.90
43143;DHT22;28750;59.842;17.584;2023-08-06T12:48:14;17.00;99.90
43143;DHT22;28750;59.842;17.584;2023-08-06T12:50:42;16.80;99.90
43143;DHT22;28750;59.842;17.584;2023-08-06T12:53:11;16.70;99.90
43143;DHT22;28750;59.842;17.584;2023-08-06T12:55:39;16.60;99.90
43143;DHT22;28750;59.842;17.584;2023-08-06T12:58:09;16.70;99.90
43143;DHT22;28750;59.842;17.584;2023-08-06T13:00:37;16.80;99.90
43143;DHT22;28750;59.842;17.584;2023-08-06T13:03:05;16.80;99.90
43143;DHT22;28750;59.842;17.584;2023-08-06T13:05:33;16.90;99.90
43143;DHT22;28750;59.842;17.584;2023-08-06T13:08:00;16.80;99.90
43143;DHT22;28750;59.842;17.584;2023-08-06T13:10:27;16.90;99.90
43143;DHT22;28750;59.842;17.584;2023-08-06T13:12:56;16.90;99.90
43143;DHT22;28750;59.842;17.584;2023-08-06T13:15:25;16.90;99.90
43143;DHT22;28750;59.842;17.584;2023-08-06T13:17:53;17.00;99.90
43143;DHT22;28750;59.842;17.584;2023-08-06T13:20:21;17.00;99.90
43143;DHT22;28750;59.842;17.584;2023-08-06T13:22:48;17.00;99.90
43143;DHT22;28750;59.842;17.584;2023-08-06T13:25:18;17.00;99.90
43143;DHT22;28750;59.842;17.584;2023-08-06T13:27:47;16.90;99.90
43143;DHT22;28750;59.842;17.584;2023-08-06T13:30:14;16.90;99.90
43143;DHT22;28750;59.842;17.584;2023-08-06T13:32:43;16.80;99.90
43143;DHT22;28750;59.842;17.584;2023-08-06T13:35:11;16.50;99.90
43143;DHT22;28750;59.842;17.584;2023-08-06T13:37:38;16.60;99.90
43143;DHT22;28750;59.842;17.584;2023-08-06T13:40:06;16.60;99.90
43143;DHT22;28750;59.842;17.584;2023-08-06T13:42:34;16.40;99.90
43143;DHT22;28750;59.842;17.584;2023-08-06T13:45:01;16.40;99.90
43143;DHT22;28750;59.842;17.584;2023-08-06T13:47:29;16.50;99.90
43143;DHT22;28750;59.842;17.584;2023-08-06T13:49:56;16.50;99.90
43143;DHT22;28750;59.842;17.584;2023-08-06T13:52:25;16.50;99.90
43143;DHT22;28750;59.842;17.584;2023-08-06T13:54:52;16.50;99.90
43143;DHT22;28750;59.842;17.584;2023-08-06T13:57:19;16.40;99.90
43143;DHT22;28750;59.842;17.584;2023-08-06T13:59:47;16.50;99.90
43143;DHT22;28750;59.842;17.584;2023-08-06T14:02:14;16.30;99.90
43143;DHT22;28750;59.842;17.584;2023-08-06T14:04:41;16.40;99.90
43143;DHT22;28750;59.842;17.584;2023-08-06T14:07:08;16.40;99.90
43143;DHT22;28750;59.842;17.584;2023-08-06T14:09:35;16.40;99.90
43143;DHT22;28750;59.842;17.584;2023-08-06T14:12:02;16.40;99.90
43143;DHT22;28750;59.842;17.584;2023-08-06T14:14:32;16.40;99.90
43143;DHT22;28750;59.842;17.584;2023-08-06T14:16:59;16.40;99.90
43143;DHT22;28750;59.842;17.584;2023-08-06T14:19:26;16.30;99.90
43143;DHT22;28750;59.842;17.584;2023-08-06T14:21:54;16.30;99.90
43143;DHT22;28750;59.842;17.584;2023-08-06T14:24:22;16.30;99.90
43143;DHT22;28750;59.842;17.584;2023-08-06T14:26:49;16.30;99.90
43143;DHT22;28750;59.842;17.584;2023-08-06T14:29:17;16.30;99.90
43143;DHT22;28750;59.842;17.584;2023-08-06T14:31:44;16.30;99.90
43143;DHT22;28750;59.842;17.584;2023-08-06T14:34:11;16.30;99.90
43143;DHT22;28750;59.842;17.584;2023-08-06T14:36:38;16.30;99.90
43143;DHT22;28750;59.842;17.584;2023-08-06T14:39:05;16.30;99.90
43143;DHT22;28750;59.842;17.584;2023-08-06T14:41:32;16.30;99.90
43143;DHT22;28750;59.842;17.584;2023-08-06T14:43:59;16.40;99.90
43143;DHT22;28750;59.842;17.584;2023-08-06T14:46:26;16.40;99.90
43143;DHT22;28750;59.842;17.584;2023-08-06T14:48:53;16.50;99.90
43143;DHT22;28750;59.842;17.584;2023-08-06T14:51:20;16.50;99.90
43143;DHT22;28750;59.842;17.584;2023-08-06T14:53:48;16.40;99.90
43143;DHT22;28750;59.842;17.584;2023-08-06T14:56:15;16.50;99.90
43143;DHT22;28750;59.842;17.584;2023-08-06T14:58:42;16.50;99.90
43143;DHT22;28750;59.842;17.584;2023-08-06T15:01:09;16.50;99.90
43143;DHT22;28750;59.842;17.584;2023-08-06T15:03:37;16.50;99.90
43143;DHT22;28750;59.842;17.584;2023-08-06T15:06:04;16.50;99.90
43143;DHT22;28750;59.842;17.584;2023-08-06T15:08:31;16.50;99.90
43143;DHT22;28750;59.842;17.584;2023-08-06T15:10:58;16.50;99.90
43143;DHT22;28750;59.842;17.584;2023-08-06T15:13:27;16.50;99.90
43143;DHT22;28750;59.842;17.584;2023-08-06T15:15:54;16.40;99.90
43143;DHT22;28750;59.842;17.584;2023-08-06T15:18:21;16.50;99.90
43143;DHT22;28750;59.842;17.584;2023-08-06T15:20:48;16.50;99.90
43143;DHT22;28750;59.842;17.584;2023-08-06T15:23:15;16.50;99.90
43143;DHT22;28750;59.842;17.584;2023-08-06T15:25:43;16.50;99.90
43143;DHT22;28750;59.842;17.584;2023-08-06T15:28:10;16.50;99.90
43143;DHT22;28750;59.842;17.584;2023-08-06T15:30:37;16.60;99.90
43143;DHT22;28750;59.842;17.584;2023-08-06T15:33:05;16.60;99.90